Time;durP1;ratioP1;P1;durP2;ratioP2;P2;SDS_P1;SDS_P2;PMS_P1;PMS_P2;Temp;Humidity;BMP_temperature;BMP_pressure;BME280_temperature;BME280_humidity;BME280_pressure;Samples;Min_cycle;Max_cycle;Signal;HPM_P1;HPM_P2
2023/07/23 00:01:46;;;;;;;8.90;1.90;;;;;;;17.08;80.28;100507.03;5081157;28;20059;-72
2023/07/23 00:04:12;;;;;;;6.22;2.10;;;;;;;17.14;80.63;100517.75;5052468;28;20489;-72
2023/07/23 00:06:38;;;;;;;6.55;1.98;;;;;;;17.12;80.61;100509.03;5053048;28;20041;-72
2023/07/23 00:09:04;;;;;;;5.75;2.20;;;;;;;16.95;80.85;100480.22;5071162;28;20490;-72
2023/07/23 00:11:30;;;;;;;6.72;1.90;;;;;;;17.09;81.31;100508.72;5072275;28;20028;-72
2023/07/23 00:13:56;;;;;;;7.20;2.10;;;;;;;17.08;81.52;100509.75;5071397;28;20489;-72
2023/07/23 00:16:22;;;;;;;7.32;2.10;;;;;;;17.06;81.84;100503.78;5087739;28;20077;-73
2023/07/23 00:18:47;;;;;;;8.65;2.30;;;;;;;17.07;81.87;100508.94;5108184;28;20032;-73
2023/07/23 00:21:14;;;;;;;4.80;1.95;;;;;;;17.06;81.76;100504.59;5089239;28;20044;-73
2023/07/23 00:23:39;;;;;;;5.82;1.90;;;;;;;17.05;81.96;100504.81;5071614;28;20468;-72
2023/07/23 00:26:04;;;;;;;6.75;2.20;;;;;;;17.00;82.22;100511.03;5073037;28;20046;-73
2023/07/23 00:28:30;;;;;;;6.22;1.90;;;;;;;16.95;82.50;100510.09;5073052;28;20363;-73
2023/07/23 00:30:55;;;;;;;9.82;2.22;;;;;;;16.89;82.43;100510.03;5090405;28;20036;-72
2023/07/23 00:33:23;;;;;;;5.68;2.10;;;;;;;16.73;82.49;100483.66;5083001;28;20059;-73
2023/07/23 00:35:49;;;;;;;4.72;1.90;;;;;;;16.87;82.83;100509.47;5075057;28;20028;-72
2023/07/23 00:38:14;;;;;;;6.95;2.10;;;;;;;16.84;82.80;100504.53;5037293;28;20032;-72
2023/07/23 00:40:40;;;;;;;9.50;2.30;;;;;;;16.85;82.98;100513.50;5069370;28;20028;-72
2023/07/23 00:43:06;;;;;;;6.25;2.33;;;;;;;16.85;83.10;100513.50;5069863;28;20024;-72
2023/07/23 00:45:32;;;;;;;7.55;2.33;;;;;;;16.83;82.95;100505.59;5072628;28;20028;-72
2023/07/23 00:47:59;;;;;;;8.25;2.20;;;;;;;16.80;83.27;100506.09;5080841;28;20044;-73
2023/07/23 00:50:25;;;;;;;6.63;2.15;;;;;;;16.81;83.56;100505.00;5073245;28;20047;-72
2023/07/23 00:52:51;;;;;;;6.70;2.10;;;;;;;16.76;83.66;100499.50;5080436;28;20031;-72
2023/07/23 00:55:16;;;;;;;6.70;2.28;;;;;;;16.79;84.03;100501.75;5089534;28;20058;-72
2023/07/23 00:57:43;;;;;;;5.68;2.17;;;;;;;16.70;84.02;100486.88;5106732;28;20047;-72
2023/07/23 01:00:10;;;;;;;6.28;2.10;;;;;;;16.77;84.45;100497.63;5106619;28;20039;-72
2023/07/23 01:02:36;;;;;;;5.68;2.10;;;;;;;16.81;84.08;100499.56;5069962;28;20042;-72
2023/07/23 01:05:02;;;;;;;5.88;2.55;;;;;;;16.80;83.83;100495.22;5070893;28;20115;-72
2023/07/23 01:07:31;;;;;;;8.05;2.53;;;;;;;16.57;83.62;100455.44;5070533;28;20032;-72
2023/07/23 01:09:57;;;;;;;5.43;2.30;;;;;;;16.90;83.50;100502.72;5070642;28;20029;-72
2023/07/23 01:12:24;;;;;;;5.95;2.33;;;;;;;16.93;83.47;100495.97;5068656;28;20036;-72
2023/07/23 01:14:49;;;;;;;5.72;2.40;;;;;;;16.78;83.50;100470.19;5070059;28;20085;-72
2023/07/23 01:17:17;;;;;;;6.70;2.83;;;;;;;16.70;83.77;100457.00;5085601;28;20111;-72
2023/07/23 01:19:43;;;;;;;6.15;2.40;;;;;;;16.92;83.52;100487.00;5084412;28;20117;-72
2023/07/23 01:22:08;;;;;;;4.10;2.22;;;;;;;16.88;83.44;100488.53;5091991;28;20036;-72
2023/07/23 01:24:35;;;;;;;8.55;2.30;;;;;;;16.84;83.71;100490.94;5090509;28;20127;-72
2023/07/23 01:27:03;;;;;;;8.30;2.67;;;;;;;16.80;83.75;100491.69;5089973;28;20016;-72
2023/07/23 01:29:29;;;;;;;8.32;2.72;;;;;;;16.75;84.18;100489.69;5090730;28;20032;-72
2023/07/23 01:31:54;;;;;;;7.60;2.17;;;;;;;16.76;84.35;100485.94;5072649;28;20108;-72
2023/07/23 01:34:21;;;;;;;4.35;2.03;;;;;;;16.73;84.44;100482.84;5087959;28;20026;-72
2023/07/23 01:36:47;;;;;;;6.50;2.47;;;;;;;16.67;84.43;100477.31;5089886;28;20098;-72
2023/07/23 01:39:12;;;;;;;7.65;2.97;;;;;;;16.60;84.54;100462.28;5089323;28;20059;-72
2023/07/23 01:41:38;;;;;;;6.47;2.22;;;;;;;16.60;85.29;100478.56;5088994;28;20043;-72
2023/07/23 01:44:04;;;;;;;5.25;2.30;;;;;;;16.44;85.43;100458.47;5088980;28;20050;-72
2023/07/23 01:46:29;;;;;;;6.32;2.53;;;;;;;16.54;85.71;100474.94;5090230;28;20020;-72
2023/07/23 01:48:54;;;;;;;6.88;2.40;;;;;;;16.54;85.82;100471.41;5088786;28;20048;-72
2023/07/23 01:51:20;;;;;;;6.93;2.33;;;;;;;16.53;86.13;100467.06;5090387;28;20028;-72
2023/07/23 01:53:45;;;;;;;6.88;2.78;;;;;;;16.58;86.13;100469.84;5101887;28;20032;-72
2023/07/23 01:56:11;;;;;;;7.47;2.45;;;;;;;16.59;85.54;100466.06;5089839;28;20294;-73
2023/07/23 01:58:36;;;;;;;5.55;2.50;;;;;;;16.55;85.84;100460.28;5090072;28;20043;-72
2023/07/23 02:01:04;;;;;;;7.97;2.40;;;;;;;16.54;85.85;100455.09;5068506;28;20100;-72
2023/07/23 02:03:29;;;;;;;4.82;2.00;;;;;;;16.52;85.81;100455.34;5055157;28;20435;-72
2023/07/23 02:05:56;;;;;;;9.43;2.58;;;;;;;16.43;85.58;100437.84;5055107;28;20039;-72
2023/07/23 02:08:22;;;;;;;7.40;2.33;;;;;;;16.50;85.82;100459.41;5051993;28;20024;-72
2023/07/23 02:10:49;;;;;;;6.65;2.30;;;;;;;16.48;85.93;100456.09;5068470;28;20033;-73
2023/07/23 02:13:14;;;;;;;6.75;2.28;;;;;;;16.45;86.22;100460.94;5085415;28;20482;-72
2023/07/23 02:15:39;;;;;;;6.38;2.30;;;;;;;16.40;86.13;100455.44;5069023;28;20560;-72
2023/07/23 02:18:05;;;;;;;5.75;2.67;;;;;;;16.31;86.20;100443.31;5068407;28;20033;-72
2023/07/23 02:20:30;;;;;;;7.47;2.25;;;;;;;16.34;86.31;100453.69;5068177;28;20398;-72
2023/07/23 02:22:56;;;;;;;6.05;2.72;;;;;;;16.30;86.50;100455.25;5068493;28;20029;-72
2023/07/23 02:25:22;;;;;;;5.53;2.45;;;;;;;16.28;86.92;100453.84;5085280;28;20025;-72
2023/07/23 02:27:47;;;;;;;9.48;2.55;;;;;;;16.27;86.78;100457.66;5069786;28;20309;-72
2023/07/23 02:30:13;;;;;;;11.23;2.90;;;;;;;16.26;87.09;100453.25;5085281;28;20040;-72
2023/07/23 02:32:38;;;;;;;7.55;2.55;;;;;;;16.12;86.94;100431.03;5085498;28;20119;-72
2023/07/23 02:35:04;;;;;;;6.68;2.55;;;;;;;16.28;87.15;100456.56;5068448;28;20123;-72
2023/07/23 02:37:29;;;;;;;5.25;2.08;;;;;;;16.24;86.93;100445.38;5069821;28;20129;-72
2023/07/23 02:39:55;;;;;;;6.70;2.45;;;;;;;15.94;87.16;100400.34;5068917;28;20052;-72
2023/07/23 02:42:20;;;;;;;6.20;2.45;;;;;;;16.30;87.29;100454.44;5068798;28;20516;-72
2023/07/23 02:44:46;;;;;;;5.10;2.22;;;;;;;16.26;87.59;100450.56;5085558;28;20040;-72
2023/07/23 02:47:11;;;;;;;8.05;2.90;;;;;;;16.26;87.37;100455.97;5079248;28;20115;-72
2023/07/23 02:49:36;;;;;;;5.38;2.53;;;;;;;16.24;87.65;100450.00;5098272;28;20126;-72
2023/07/23 02:52:04;;;;;;;5.75;2.80;;;;;;;16.16;87.65;100434.94;5101109;28;20028;-72
2023/07/23 02:54:30;;;;;;;5.45;2.47;;;;;;;16.20;87.64;100446.94;5071855;28;20024;-72
2023/07/23 02:56:56;;;;;;;4.55;2.38;;;;;;;16.18;88.18;100438.22;5072622;28;20028;-72
2023/07/23 02:59:21;;;;;;;5.22;2.53;;;;;;;16.02;88.33;100422.72;5071643;28;20428;-72
2023/07/23 03:01:46;;;;;;;5.25;2.38;;;;;;;16.11;88.32;100441.09;5089283;28;20036;-72
2023/07/23 03:04:13;;;;;;;7.07;2.38;;;;;;;16.11;88.36;100438.38;5108599;28;20482;-72
2023/07/23 03:06:39;;;;;;;5.72;2.60;;;;;;;16.11;87.81;100441.09;5093100;28;20095;-73
2023/07/23 03:09:04;;;;;;;6.95;2.63;;;;;;;16.13;88.14;100435.44;5107950;28;20111;-72
2023/07/23 03:11:31;;;;;;;4.40;2.40;;;;;;;16.13;88.13;100435.44;5091361;28;20024;-72
2023/07/23 03:13:56;;;;;;;5.70;2.47;;;;;;;16.16;87.60;100433.03;5092266;28;20110;-72
2023/07/23 03:16:21;;;;;;;4.18;2.38;;;;;;;16.08;87.70;100413.63;5091183;28;20555;-72
2023/07/23 03:18:47;;;;;;;5.18;2.88;;;;;;;16.13;87.58;100424.56;5074130;28;20458;-72
2023/07/23 03:21:12;;;;;;;6.50;2.47;;;;;;;16.24;87.02;100437.25;5091348;28;20032;-72
2023/07/23 03:23:38;;;;;;;4.30;2.40;;;;;;;16.25;87.19;100425.31;5091352;28;20032;-72
2023/07/23 03:26:03;;;;;;;9.50;2.72;;;;;;;16.32;87.00;100423.25;5070922;28;20029;-72
2023/07/23 03:28:28;;;;;;;11.27;2.70;;;;;;;16.74;85.59;100425.53;5070973;28;20075;-72
2023/07/23 03:30:54;;;;;;;9.07;2.67;;;;;;;17.66;81.67;100437.66;5085824;28;20060;-72
2023/07/23 03:33:19;;;;;;;5.90;2.92;;;;;;;18.34;78.50;100432.59;5087862;28;20139;-72
2023/07/23 03:35:45;;;;;;;6.60;2.03;;;;;;;18.99;75.64;100436.09;5090425;28;20150;-72
2023/07/23 03:38:11;;;;;;;5.07;2.40;;;;;;;19.47;73.68;100434.16;5089488;28;20177;-73
2023/07/23 03:40:36;;;;;;;4.28;2.38;;;;;;;19.99;71.32;100425.03;5077599;28;20032;-72
2023/07/23 03:43:02;;;;;;;5.30;2.33;;;;;;;20.54;68.79;100431.66;5089059;28;20054;-73
2023/07/23 03:45:27;;;;;;;5.45;2.28;;;;;;;21.01;66.90;100430.47;5078602;28;20032;-73
2023/07/23 03:47:53;;;;;;;5.32;2.17;;;;;;;21.47;64.84;100430.34;5091598;28;20132;-73
2023/07/23 03:50:18;;;;;;;5.18;2.20;;;;;;;21.66;63.48;100427.78;5083374;28;20039;-72
2023/07/23 03:52:43;;;;;;;5.20;2.08;;;;;;;21.83;62.60;100421.13;5053685;28;20039;-72
2023/07/23 03:55:09;;;;;;;4.90;2.25;;;;;;;21.96;61.94;100429.53;5071948;28;20028;-72
2023/07/23 03:57:34;;;;;;;3.85;2.25;;;;;;;21.78;62.85;100436.47;5069410;28;20036;-72
2023/07/23 04:00:00;;;;;;;4.68;2.17;;;;;;;22.27;60.74;100426.56;5070367;28;20093;-72
2023/07/23 04:02:25;;;;;;;4.10;1.83;;;;;;;22.71;59.22;100425.63;5073041;28;20031;-73
2023/07/23 04:04:50;;;;;;;5.25;2.17;;;;;;;23.03;57.50;100408.59;5057195;28;20514;-72
2023/07/23 04:07:16;;;;;;;4.00;2.00;;;;;;;23.49;56.67;100420.94;5074094;28;20450;-73
2023/07/23 04:09:41;;;;;;;5.78;2.28;;;;;;;23.78;55.47;100424.44;5091055;28;20490;-72
2023/07/23 04:12:09;;;;;;;4.22;2.00;;;;;;;24.01;54.53;100408.16;5092176;28;20515;-72
2023/07/23 04:14:42;;;;;;;4.93;2.03;;;;;;;24.11;54.25;100419.00;5090469;28;20085;-73
2023/07/23 04:17:07;;;;;;;6.30;2.28;;;;;;;24.31;53.67;100418.66;5084038;28;20032;-72
2023/07/23 04:19:33;;;;;;;8.50;2.20;;;;;;;22.83;57.14;100414.28;5035945;28;20035;-73
2023/07/23 04:21:58;;;;;;;8.13;2.15;;;;;;;22.70;58.48;100415.78;5061191;28;20376;-73
2023/07/23 04:24:23;;;;;;;7.50;2.58;;;;;;;23.75;55.47;100415.97;5073045;28;20126;-73
2023/07/23 04:26:49;;;;;;;4.82;2.03;;;;;;;24.56;52.66;100422.91;5097698;28;20027;-73
2023/07/23 04:29:14;;;;;;;4.00;2.00;;;;;;;25.02;51.06;100418.50;5107081;28;20032;-73
2023/07/23 04:31:40;;;;;;;7.13;2.17;;;;;;;25.27;50.40;100423.53;5103771;28;20493;-73
2023/07/23 04:34:05;;;;;;;4.30;2.05;;;;;;;25.57;49.16;100418.50;5091039;28;20037;-73
2023/07/23 04:36:31;;;;;;;6.38;2.42;;;;;;;25.53;48.94;100406.47;5077042;28;20028;-73
2023/07/23 04:39:00;;;;;;;4.75;2.00;;;;;;;25.71;48.57;100407.44;5070486;28;20043;-72
2023/07/23 04:41:26;;;;;;;4.45;2.00;;;;;;;25.92;47.95;100410.56;5080425;28;20024;-72
2023/07/23 04:43:51;;;;;;;6.25;2.20;;;;;;;26.05;47.55;100417.97;5091438;28;20043;-73
2023/07/23 04:46:16;;;;;;;4.45;2.03;;;;;;;25.89;47.44;100409.25;5076447;28;20537;-73
2023/07/23 04:48:42;;;;;;;4.68;2.17;;;;;;;26.06;46.90;100411.34;5068326;28;20062;-73
2023/07/23 04:51:09;;;;;;;5.22;2.00;;;;;;;26.25;46.73;100411.97;5090168;28;20444;-73
2023/07/23 04:53:35;;;;;;;7.32;2.03;;;;;;;26.09;46.46;100410.69;5091430;28;20032;-73
2023/07/23 04:56:03;;;;;;;4.07;1.88;;;;;;;26.14;46.27;100410.59;5091151;28;20051;-73
2023/07/23 04:58:28;;;;;;;4.03;2.03;;;;;;;25.96;46.00;100401.38;5090170;28;20055;-74
2023/07/23 05:00:54;;;;;;;6.80;2.08;;;;;;;25.47;46.52;100393.94;5074259;28;20201;-73
2023/07/23 05:03:20;;;;;;;4.70;2.28;;;;;;;25.77;46.81;100412.53;5071087;28;20039;-72
2023/07/23 05:05:47;;;;;;;5.10;2.20;;;;;;;25.62;46.87;100410.13;5069700;28;20040;-72
2023/07/23 05:08:13;;;;;;;3.97;2.40;;;;;;;25.77;46.92;100411.72;5070746;28;20021;-74
2023/07/23 05:10:39;;;;;;;5.63;2.20;;;;;;;26.11;45.97;100411.22;5070840;28;20085;-74
2023/07/23 05:13:04;;;;;;;4.15;1.92;;;;;;;25.86;46.49;100398.03;5069581;28;20215;-74
2023/07/23 05:15:30;;;;;;;5.43;2.00;;;;;;;25.82;47.25;100405.31;5068787;28;20382;-72
2023/07/23 05:17:56;;;;;;;4.85;2.22;;;;;;;26.25;46.36;100411.16;5053099;28;20127;-74
2023/07/23 05:20:21;;;;;;;4.20;1.90;;;;;;;26.24;46.53;100406.78;5070875;28;20412;-74
2023/07/23 05:22:47;;;;;;;6.45;2.20;;;;;;;26.04;46.18;100394.31;5069336;28;20222;-73
2023/07/23 05:25:12;;;;;;;4.78;2.10;;;;;;;25.96;46.43;100404.13;5052388;28;20398;-74
2023/07/23 05:27:38;;;;;;;6.07;2.08;;;;;;;26.06;47.24;100403.09;5069477;28;20064;-73
2023/07/23 05:30:04;;;;;;;4.60;1.92;;;;;;;25.97;46.88;100399.44;5070855;28;20020;-73
2023/07/23 05:32:30;;;;;;;7.70;2.10;;;;;;;25.41;47.56;100395.16;5086331;28;20051;-72
2023/07/23 05:34:56;;;;;;;7.13;2.80;;;;;;;25.29;47.86;100398.44;5087494;28;20032;-73
2023/07/23 05:37:22;;;;;;;6.35;2.20;;;;;;;24.77;48.60;100390.38;5088428;28;20096;-73
2023/07/23 05:39:48;;;;;;;6.72;2.08;;;;;;;24.52;50.03;100404.59;5089321;28;20115;-73
2023/07/23 05:42:14;;;;;;;4.60;2.25;;;;;;;25.05;49.86;100398.63;5089905;28;20115;-73
2023/07/23 05:44:39;;;;;;;4.90;2.10;;;;;;;24.78;48.89;100383.72;5089396;28;20032;-73
2023/07/23 05:47:05;;;;;;;5.05;2.72;;;;;;;24.81;48.71;100391.38;5088328;28;20029;-73
2023/07/23 05:49:30;;;;;;;3.58;2.13;;;;;;;24.36;50.10;100404.81;5089395;28;20059;-73
2023/07/23 05:51:58;;;;;;;4.20;2.00;;;;;;;23.84;51.74;100406.75;5106808;28;20043;-74
2023/07/23 05:54:24;;;;;;;3.38;2.20;;;;;;;23.30;52.55;100412.66;5106360;28;20406;-73
2023/07/23 05:56:49;;;;;;;6.72;2.55;;;;;;;22.74;52.80;100392.13;5106202;28;20032;-74
2023/07/23 05:59:15;;;;;;;4.72;2.10;;;;;;;22.67;53.16;100397.16;5072938;28;20418;-73
2023/07/23 06:01:41;;;;;;;4.00;2.20;;;;;;;22.75;53.81;100393.78;5089531;28;20051;-74
2023/07/23 06:04:06;;;;;;;3.40;1.77;;;;;;;22.81;54.01;100400.84;5089593;28;20020;-73
2023/07/23 06:06:32;;;;;;;7.82;2.10;;;;;;;22.89;54.23;100408.44;5106501;28;20046;-74
2023/07/23 06:08:57;;;;;;;6.43;2.28;;;;;;;23.03;54.31;100394.88;5089417;28;20036;-72
2023/07/23 06:11:23;;;;;;;4.88;1.85;;;;;;;23.23;53.76;100401.22;5106236;28;20028;-74
2023/07/23 06:13:48;;;;;;;5.65;1.90;;;;;;;23.30;53.68;100408.00;5090038;28;20444;-72
2023/07/23 06:16:14;;;;;;;3.17;1.80;;;;;;;23.29;53.33;100403.63;5079182;28;20430;-73
2023/07/23 06:18:39;;;;;;;4.53;2.20;;;;;;;23.10;54.04;100400.00;5081180;28;20033;-73
2023/07/23 06:21:05;;;;;;;4.82;1.90;;;;;;;22.94;53.31;100382.91;5088446;28;20063;-73
2023/07/23 06:23:31;;;;;;;4.72;1.80;;;;;;;22.97;53.37;100393.28;5094335;28;20039;-73
2023/07/23 06:25:57;;;;;;;4.22;1.95;;;;;;;23.15;53.51;100392.53;5093411;28;20065;-74
2023/07/23 06:28:23;;;;;;;4.93;2.03;;;;;;;23.13;52.94;100394.75;5092201;28;20099;-75
2023/07/23 06:30:53;;;;;;;5.22;2.00;;;;;;;22.65;53.08;100374.69;5092307;28;20053;-73
2023/07/23 06:33:19;;;;;;;3.40;2.00;;;;;;;22.40;54.12;100398.50;5092516;28;20047;-73
2023/07/23 06:35:46;;;;;;;4.72;1.75;;;;;;;22.41;54.77;100394.66;5092440;28;20051;-74
2023/07/23 06:38:13;;;;;;;3.60;1.92;;;;;;;22.74;54.35;100403.13;5092592;28;20059;-73
2023/07/23 06:40:46;;;;;;;6.63;2.30;;;;;;;22.63;54.40;100399.66;5094077;28;20044;-72
2023/07/23 06:43:13;;;;;;;4.45;1.77;;;;;;;22.83;54.95;100397.81;5092389;28;20110;-73
2023/07/23 06:45:38;;;;;;;3.17;1.80;;;;;;;23.02;53.78;100400.66;5092093;28;20035;-73
2023/07/23 06:48:04;;;;;;;4.60;1.70;;;;;;;23.08;53.97;100392.09;5093084;28;20101;-72
2023/07/23 06:50:31;;;;;;;4.43;1.73;;;;;;;23.08;53.27;100391.25;5093457;28;20084;-73
2023/07/23 06:52:56;;;;;;;3.30;1.83;;;;;;;22.80;53.40;100396.47;5074571;28;20024;-74
2023/07/23 06:55:22;;;;;;;4.57;1.73;;;;;;;22.35;54.35;100398.56;5092142;28;20035;-74
2023/07/23 06:57:47;;;;;;;5.22;1.90;;;;;;;22.27;54.86;100404.66;5074079;28;20032;-75
2023/07/23 07:00:13;;;;;;;5.82;1.85;;;;;;;22.56;54.38;100399.19;5107702;28;20039;-75
2023/07/23 07:02:38;;;;;;;4.78;2.13;;;;;;;22.69;54.42;100397.69;5092893;28;20482;-74
2023/07/23 07:05:04;;;;;;;4.07;1.85;;;;;;;22.96;54.25;100397.16;5092465;28;20020;-74
2023/07/23 07:07:29;;;;;;;3.10;1.70;;;;;;;23.17;52.79;100393.03;5093218;28;20478;-73
2023/07/23 07:09:55;;;;;;;4.18;1.90;;;;;;;22.72;52.23;100391.63;5091047;28;20043;-73
2023/07/23 07:12:20;;;;;;;4.18;1.75;;;;;;;22.34;53.99;100385.13;5091780;28;20039;-74
2023/07/23 07:14:46;;;;;;;2.63;1.85;;;;;;;22.90;53.51;100401.84;5092350;28;20612;-73
2023/07/23 07:17:11;;;;;;;3.53;1.92;;;;;;;23.21;52.38;100374.06;5091383;28;20036;-72
2023/07/23 07:19:36;;;;;;;2.33;1.65;;;;;;;23.59;52.69;100394.16;5074179;28;20491;-74
2023/07/23 07:22:02;;;;;;;3.58;1.90;;;;;;;23.81;52.56;100392.78;5108554;28;20062;-73
2023/07/23 07:24:28;;;;;;;3.92;1.77;;;;;;;23.91;52.11;100390.69;5091062;28;20052;-73
2023/07/23 07:26:54;;;;;;;2.90;1.90;;;;;;;23.95;51.82;100384.63;5091015;28;20028;-73
2023/07/23 07:29:19;;;;;;;4.68;1.75;;;;;;;23.83;51.66;100399.59;5108443;28;20035;-73
2023/07/23 07:31:47;;;;;;;4.03;1.92;;;;;;;23.86;52.30;100399.00;5091317;28;20028;-73
2023/07/23 07:34:13;;;;;;;4.93;1.75;;;;;;;23.89;52.13;100386.63;5075135;28;20134;-73
2023/07/23 07:36:38;;;;;;;2.70;1.77;;;;;;;23.57;52.01;100395.56;5091587;28;20125;-73
2023/07/23 07:39:04;;;;;;;3.05;2.00;;;;;;;23.32;52.35;100383.00;5091790;28;20036;-73
2023/07/23 07:41:30;;;;;;;4.57;2.17;;;;;;;23.55;51.97;100384.06;5092656;28;20035;-73
2023/07/23 07:43:55;;;;;;;4.05;1.75;;;;;;;23.63;51.96;100380.66;5081020;28;20587;-73
2023/07/23 07:46:21;;;;;;;3.92;2.28;;;;;;;23.87;51.75;100395.16;5089429;28;20490;-73
2023/07/23 07:48:47;;;;;;;4.32;2.40;;;;;;;23.62;51.70;100395.50;5107611;28;20055;-73
2023/07/23 07:51:13;;;;;;;5.00;2.05;;;;;;;23.84;51.51;100398.50;5073790;28;20043;-73
2023/07/23 07:53:38;;;;;;;3.90;2.08;;;;;;;23.70;52.52;100389.34;5091243;28;20035;-74
2023/07/23 07:56:04;;;;;;;4.07;1.80;;;;;;;23.66;52.15;100400.09;5074003;28;20024;-73
2023/07/23 07:58:30;;;;;;;3.35;2.08;;;;;;;23.85;51.36;100400.13;5074168;28;20024;-73
2023/07/23 08:01:01;;;;;;;3.17;1.92;;;;;;;23.64;51.17;100398.75;5091257;28;20559;-73
2023/07/23 08:03:29;;;;;;;3.22;2.10;;;;;;;23.42;50.56;100402.91;5091448;28;20024;-73
2023/07/23 08:05:55;;;;;;;5.00;2.05;;;;;;;23.14;49.48;100373.59;5091299;28;20024;-73
2023/07/23 08:08:29;;;;;;;4.40;2.17;;;;;;;23.03;49.82;100396.81;5088340;28;20024;-73
2023/07/23 08:11:00;;;;;;;2.72;1.90;;;;;;;22.94;49.57;100394.69;5079488;28;20106;-73
2023/07/23 08:13:26;;;;;;;3.20;2.10;;;;;;;22.84;50.15;100397.50;5107999;28;20043;-73
2023/07/23 08:15:54;;;;;;;4.28;2.17;;;;;;;22.81;50.75;100397.28;5092157;28;20389;-73
2023/07/23 08:18:20;;;;;;;2.70;2.10;;;;;;;22.99;50.90;100396.56;5090600;28;20035;-73
2023/07/23 08:20:45;;;;;;;3.67;2.00;;;;;;;22.95;51.22;100401.84;5092161;28;20444;-73
2023/07/23 08:23:11;;;;;;;2.55;2.20;;;;;;;23.19;51.86;100401.00;5090864;28;20036;-73
2023/07/23 08:25:38;;;;;;;3.78;1.92;;;;;;;23.33;50.49;100399.16;5091459;28;20479;-73
2023/07/23 08:28:06;;;;;;;3.42;2.05;;;;;;;23.41;50.36;100400.44;5070493;28;20218;-73
2023/07/23 08:30:32;;;;;;;2.63;2.03;;;;;;;23.49;50.45;100399.78;5087423;28;20064;-74
2023/07/23 08:32:59;;;;;;;3.15;1.90;;;;;;;23.70;50.51;100400.34;5104318;28;20024;-73
2023/07/23 08:35:26;;;;;;;4.00;1.77;;;;;;;23.81;50.33;100404.59;5088843;28;20122;-73
2023/07/23 08:37:52;;;;;;;2.35;1.83;;;;;;;23.92;49.47;100411.56;5088663;28;20040;-73
2023/07/23 08:40:19;;;;;;;3.22;1.80;;;;;;;23.83;48.47;100382.31;5089490;28;20122;-74
2023/07/23 08:42:47;;;;;;;4.18;1.85;;;;;;;23.87;48.76;100399.81;5089210;28;20482;-73
2023/07/23 08:45:28;;;;;;;4.38;1.90;;;;;;;23.90;49.46;100400.03;5091248;28;20039;-73
2023/07/23 08:48:15;;;;;;;2.13;1.50;;;;;;;23.99;48.26;100402.13;5090249;28;20052;-73
2023/07/23 08:50:43;;;;;;;2.92;1.83;;;;;;;23.54;47.50;100391.50;5093024;28;20024;-74
2023/07/23 08:53:11;;;;;;;5.93;1.98;;;;;;;23.25;48.15;100405.31;5091588;28;20039;-73
2023/07/23 08:55:43;;;;;;;3.55;1.42;;;;;;;23.36;47.35;100390.34;5090101;28;20034;-73
2023/07/23 08:58:12;;;;;;;3.63;1.70;;;;;;;23.47;46.38;100401.19;5091175;28;20482;-73
2023/07/23 09:00:39;;;;;;;2.33;1.48;;;;;;;23.59;47.14;100413.38;5106305;28;20060;-73
2023/07/23 09:03:07;;;;;;;1.90;1.70;;;;;;;23.67;47.35;100406.41;5089729;28;20028;-73
2023/07/23 09:05:33;;;;;;;2.65;1.60;;;;;;;23.62;48.13;100415.53;5091474;28;20103;-73
2023/07/23 09:07:59;;;;;;;2.35;1.50;;;;;;;23.49;47.78;100407.22;5091107;28;20030;-74
2023/07/23 09:10:24;;;;;;;3.72;1.50;;;;;;;23.56;46.97;100407.66;5073589;28;20364;-73
2023/07/23 09:12:50;;;;;;;5.70;1.73;;;;;;;23.62;46.72;100407.31;5089849;28;20477;-73
2023/07/23 09:15:15;;;;;;;2.28;1.20;;;;;;;23.24;44.55;100387.19;5090095;28;20043;-73
2023/07/23 09:17:41;;;;;;;2.05;1.20;;;;;;;23.26;46.14;100401.47;5090098;28;20482;-73
2023/07/23 09:20:10;;;;;;;3.42;1.40;;;;;;;23.41;46.63;100398.53;5107063;28;20051;-73
2023/07/23 09:22:36;;;;;;;2.78;1.67;;;;;;;23.42;47.44;100405.66;5091465;28;20032;-73
2023/07/23 09:25:01;;;;;;;4.00;1.42;;;;;;;23.53;47.88;100408.25;5097916;28;20199;-73
2023/07/23 09:27:42;;;;;;;3.08;1.48;;;;;;;23.58;47.26;100378.00;5093995;28;20538;-73
2023/07/23 09:30:19;;;;;;;1.67;1.27;;;;;;;23.54;46.67;100407.13;5091665;28;20033;-73
2023/07/23 09:32:45;;;;;;;2.00;1.30;;;;;;;23.56;46.12;100404.91;5091358;28;20496;-73
2023/07/23 09:35:10;;;;;;;2.22;1.35;;;;;;;23.75;46.52;100405.78;5091309;28;20074;-74
2023/07/23 09:37:36;;;;;;;2.80;1.60;;;;;;;23.84;46.27;100403.16;5089337;28;20124;-73
2023/07/23 09:40:01;;;;;;;2.58;1.42;;;;;;;23.90;46.30;100391.78;5089734;28;20032;-73
2023/07/23 09:42:27;;;;;;;2.33;1.13;;;;;;;23.78;45.49;100374.97;5090712;28;20035;-73
2023/07/23 09:44:52;;;;;;;3.03;1.20;;;;;;;23.86;44.20;100396.25;5090693;28;20060;-73
2023/07/23 09:47:25;;;;;;;1.75;1.30;;;;;;;23.85;44.79;100404.81;5089664;28;20022;-73
2023/07/23 09:49:53;;;;;;;3.05;1.50;;;;;;;23.84;45.47;100392.16;5090541;28;20184;-73
2023/07/23 09:52:25;;;;;;;2.60;1.40;;;;;;;23.61;46.02;100361.72;5089412;28;20036;-73
2023/07/23 09:54:53;;;;;;;2.92;1.77;;;;;;;23.99;46.60;100397.44;5090573;28;20026;-73
2023/07/23 09:57:19;;;;;;;2.10;1.60;;;;;;;23.87;47.56;100395.16;5093660;28;20101;-73
2023/07/23 09:59:46;;;;;;;3.15;1.52;;;;;;;23.78;46.97;100385.97;5093708;28;20027;-73
2023/07/23 10:02:13;;;;;;;2.40;1.45;;;;;;;23.90;47.07;100382.75;5077157;28;20033;-73
2023/07/23 10:04:38;;;;;;;3.03;1.60;;;;;;;24.04;47.43;100393.78;5094804;28;20040;-73
2023/07/23 10:07:05;;;;;;;3.05;1.48;;;;;;;24.10;46.75;100390.66;5095086;28;20020;-73
2023/07/23 10:09:32;;;;;;;2.90;1.67;;;;;;;24.05;46.82;100387.19;5100424;28;20024;-73
2023/07/23 10:11:58;;;;;;;3.78;1.60;;;;;;;24.02;46.67;100388.59;5098222;28;20031;-73
2023/07/23 10:14:23;;;;;;;6.43;1.70;;;;;;;24.13;47.05;100370.81;5096321;28;20623;-73
2023/07/23 10:16:52;;;;;;;2.30;1.70;;;;;;;24.25;46.49;100378.59;5093829;28;20028;-73
2023/07/23 10:19:20;;;;;;;4.65;1.67;;;;;;;24.23;46.41;100380.84;5095004;28;20039;-73
2023/07/23 10:21:51;;;;;;;1.90;1.45;;;;;;;24.34;45.48;100376.00;5095023;28;20027;-73
2023/07/23 10:24:17;;;;;;;2.63;1.80;;;;;;;24.14;45.33;100364.22;5094595;28;20034;-73
2023/07/23 10:26:46;;;;;;;2.35;1.60;;;;;;;24.24;45.22;100378.88;5109703;28;20479;-73
2023/07/23 10:29:15;;;;;;;2.05;1.35;;;;;;;24.29;45.72;100368.63;5093962;28;20035;-73
2023/07/23 10:31:42;;;;;;;3.13;1.60;;;;;;;24.27;45.24;100375.53;5092978;28;20097;-73
2023/07/23 10:34:23;;;;;;;2.90;1.42;;;;;;;24.39;45.78;100370.38;5093096;28;20063;-73
2023/07/23 10:37:10;;;;;;;3.05;1.55;;;;;;;24.50;45.90;100368.28;5094285;28;20038;-73
2023/07/23 10:39:43;;;;;;;2.67;1.30;;;;;;;24.32;45.85;100373.53;5094103;28;20486;-73
2023/07/23 10:42:09;;;;;;;2.20;1.50;;;;;;;24.30;45.88;100372.19;5093497;28;20063;-73
2023/07/23 10:44:38;;;;;;;3.85;1.50;;;;;;;24.38;45.93;100371.53;5076363;28;20035;-73
2023/07/23 10:47:30;;;;;;;2.60;1.38;;;;;;;24.57;45.48;100363.25;5094701;28;20027;-73
2023/07/23 10:50:11;;;;;;;5.57;1.70;;;;;;;24.50;45.53;100368.28;5091648;28;20082;-73
2023/07/23 10:52:37;;;;;;;3.35;1.58;;;;;;;24.57;45.77;100364.06;5093611;28;20032;-74
2023/07/23 10:55:03;;;;;;;3.33;1.35;;;;;;;24.61;45.28;100351.31;5095178;28;20035;-73
2023/07/23 10:57:30;;;;;;;3.25;1.52;;;;;;;24.41;44.91;100357.19;5094073;28;20024;-73
2023/07/23 10:59:56;;;;;;;3.85;1.63;;;;;;;24.47;45.18;100356.00;5092790;28;20565;-73
2023/07/23 11:02:27;;;;;;;2.72;1.40;;;;;;;24.27;45.57;100365.38;5091462;28;20123;-73
2023/07/23 11:04:57;;;;;;;3.05;1.40;;;;;;;24.29;46.30;100365.06;5091532;28;20024;-73
2023/07/23 11:07:28;;;;;;;2.22;1.42;;;;;;;24.43;45.85;100363.19;5091080;28;20020;-73
2023/07/23 11:09:57;;;;;;;3.30;1.50;;;;;;;24.57;45.07;100360.50;5091447;28;20039;-73
2023/07/23 11:12:23;;;;;;;3.97;1.75;;;;;;;24.44;45.84;100362.09;5092635;28;20028;-73
2023/07/23 11:14:51;;;;;;;2.17;1.52;;;;;;;24.27;46.22;100339.81;5090934;28;20482;-73
2023/07/23 11:17:17;;;;;;;3.20;1.40;;;;;;;24.45;47.24;100363.72;5093744;28;20032;-73
2023/07/23 11:19:46;;;;;;;3.42;1.70;;;;;;;24.16;46.97;100344.66;5096870;28;20032;-74
2023/07/23 11:22:12;;;;;;;2.65;1.52;;;;;;;24.01;47.97;100356.75;5092676;28;20095;-73